An Xiu Shan — BRQV — position and weather

sailwx.info

Track history (hours):
 
Tides and Currents Weather Stations Pressure Air Temp Water Temp Dewpoint Dewpoint Depression Visibility Wind Speed Wind Dir Waves Ship Positions

An Xiu Shan

Last reported at 2014-Nov-27 02:26 UTC. Time now 2014-Nov-27 13:15 UTC.
Position N 29°48' E 122°57'.

Length 199 m; draft 7.4 m.

Type: Cargo ship. MMSI: 413195000.

Date/timePositionNaut miles runAvg speedWind from/ knotsBaromVisibWave heightAir tempDewpointWater temp
2014-Nov-27 02:26N 29°48' E 122°57'1211.3
2014-Nov-27 01:21N 29°36' E 122°52'2910.4
2014-Nov-26 22:33N 29°12' E 122°34'26810.3
2014-Nov-25 20:27N 25°22' E 119°60'6210.5
2014-Nov-25 14:32N 24°35' E 119°15'5711.3
2014-Nov-25 09:28N 23°58' E 118°28'1111.9
2014-Nov-25 08:33N 23°50' E 118°19'1111.1
2014-Nov-25 07:32N 23°44' E 118°09'1110.6
2014-Nov-25 06:31N 23°38' E 117°59'1111.2
2014-Nov-25 05:33N 23°31' E 117°50'1212.2
2014-Nov-25 04:33N 23°22' E 117°41'2913.2
2014-Nov-25 02:19N 23°02' E 117°18'912.3
2014-Nov-25 01:33N 22°56' E 117°09'1211.9
2014-Nov-25 00:33N 22°50' E 116°58'1211.6
2014-Nov-24 23:29N 22°42' E 116°48'1011.1
2014-Nov-24 22:33N 22°38' E 116°38'1411.3
2014-Nov-24 21:19N 22°34' E 116°23'1011.7
2014-Nov-24 20:29N 22°30' E 116°13'13113.2
2014-Nov-24 10:33N 21°57' E 113°56'1 0.5
2014-Nov-24 08:26N 21°58' E 113°55'910.6
2014-Nov-24 07:33N 22°06' E 113°51'1312.6
2014-Nov-24 06:33N 22°19' E 113°48'1312.6
2014-Nov-24 05:33N 22°31' E 113°44'1311.7
2014-Nov-24 04:29N 22°43' E 113°40'9 9.1
2014-Nov-24 03:33N 22°50' E 113°35'8 7.7
2014-Nov-24 02:33N 22°57' E 113°32'7 6.5
2014-Nov-24 01:31N 23°03' E 113°30'0 0.0
2014-Nov-24 00:07N 23°03' E 113°30'0 0.0
2014-Nov-23 23:31N 23°03' E 113°30'0 0.0
2014-Nov-23 22:31N 23°03' E 113°30'0 0.0
2014-Nov-23 21:31N 23°03' E 113°30'0 0.0
2014-Nov-23 20:25N 23°03' E 113°30'0 0.0
2014-Nov-23 19:31N 23°03' E 113°30'0 0.0
2014-Nov-23 18:31N 23°03' E 113°30'0 0.0
2014-Nov-23 17:31N 23°03' E 113°30'0 0.0
2014-Nov-23 16:25N 23°03' E 113°30'0 0.0
2014-Nov-23 15:31N 23°03' E 113°30'0 0.0
2014-Nov-23 14:25N 23°03' E 113°30'0 0.0
2014-Nov-23 13:25N 23°03' E 113°30'0 0.0
2014-Nov-23 12:25N 23°03' E 113°30'0 0.0
2014-Nov-23 11:31N 23°03' E 113°30'0 0.0
2014-Nov-23 10:25N 23°03' E 113°30'0 0.0
2014-Nov-23 09:25N 23°03' E 113°30'0 0.0
2014-Nov-23 08:31N 23°03' E 113°30'0 0.0
2014-Nov-23 07:31N 23°03' E 113°30'0 0.0
2014-Nov-23 06:19N 23°03' E 113°30'0 0.0
2014-Nov-23 05:25N 23°03' E 113°30'0 0.0
2014-Nov-23 04:31N 23°03' E 113°30'0 0.0
2014-Nov-23 03:19N 23°03' E 113°30'0 0.0
2014-Nov-23 02:19N 23°03' E 113°30'0 0.0
2014-Nov-23 01:25N 23°03' E 113°30'0 0.0
2014-Nov-23 00:19N 23°03' E 113°30'0 0.0
2014-Nov-22 23:31N 23°03' E 113°30'0 0.0
2014-Nov-22 22:19N 23°03' E 113°30'0 0.0
2014-Nov-22 21:31N 23°03' E 113°30'0 0.0
2014-Nov-22 20:31N 23°03' E 113°30'0 0.0
2014-Nov-22 19:31N 23°03' E 113°30'0 0.0
2014-Nov-22 18:31N 23°03' E 113°30'0 0.0
2014-Nov-22 17:19N 23°03' E 113°30'0 0.0
2014-Nov-22 16:19N 23°03' E 113°30'0 0.0
2014-Nov-22 15:31N 23°03' E 113°30'0 0.0
2014-Nov-22 14:19N 23°03' E 113°30'0 0.0
2014-Nov-22 13:19N 23°03' E 113°30'0 0.0
2014-Nov-22 12:31N 23°03' E 113°30'0 0.0
2014-Nov-22 11:31N 23°03' E 113°30'0 0.0
2014-Nov-22 10:31N 23°03' E 113°30'0 0.0
2014-Nov-22 09:31N 23°03' E 113°30'0 0.0
2014-Nov-22 08:25N 23°03' E 113°30'0 0.0
2014-Nov-22 07:31N 23°03' E 113°30'1 0.7
2014-Nov-22 06:33N 23°03' E 113°30'7 7.0
2014-Nov-22 05:33N 22°56' E 113°33'8 8.3
2014-Nov-22 04:33N 22°49' E 113°36'9 9.2
2014-Nov-22 03:33N 22°40' E 113°41'10 9.7
2014-Nov-22 02:33N 22°31' E 113°44'1111.2
2014-Nov-22 01:33N 22°20' E 113°48'10 9.8
2014-Nov-22 00:33N 22°11' E 113°50'10 9.8
2014-Nov-21 23:32N 22°01' E 113°52'15910.4
2014-Nov-21 08:19N 22°43' E 116°38'9210.5
2014-Nov-20 23:28N 23°38' E 117°58'9 9.4
2014-Nov-20 22:29N 23°44' E 118°06'10 9.7
2014-Nov-20 21:28N 23°51' E 118°14'9 9.5
2014-Nov-20 20:31N 23°58' E 118°20'1210.0
2014-Nov-20 19:21N 24°04' E 118°31'2410.6
2014-Nov-20 17:07N 24°19' E 118°52'911.3
2014-Nov-20 16:22N 24°25' E 118°58'1210.8
2014-Nov-20 15:14N 24°33' E 119°08'37410.4
2014-Nov-19 03:07N 29°50' E 122°51'40910.3
2014-Nov-17 11:16N 36°39' E 122°54'811.1
2014-Nov-17 10:31N 36°48' E 122°53'1110.8
2014-Nov-17 09:31N 36°58' E 122°49'1211.9
2014-Nov-17 08:33N 37°09' E 122°49'1111.2
2014-Nov-17 07:32N 37°21' E 122°48'13 9.2
2014-Nov-17 06:10N 37°31' E 122°40'6 9.7
2014-Nov-17 05:32N 37°35' E 122°34'9 9.6
2014-Nov-17 04:33N 37°42' E 122°25'  
Track history (hours):
 
Tides and Currents Weather Stations Pressure Air Temp Water Temp Dewpoint Dewpoint Depression Visibility Wind Speed Wind Dir Waves Ship Positions

An Xiu Shan

Last reported at 2014-Nov-27 02:26 UTC. Time now 2014-Nov-27 13:15 UTC.
Position N 29°48' E 122°57'.

Length 199 m; draft 7.4 m.

Type: Cargo ship. MMSI: 413195000.

Date/timePositionNaut miles runAvg speedWind from/ knotsBaromVisibWave heightAir tempDewpointWater temp
2014-Nov-27 02:26N 29°48' E 122°57'1211.3
2014-Nov-27 01:21N 29°36' E 122°52'2910.4
2014-Nov-26 22:33N 29°12' E 122°34'26810.3
2014-Nov-25 20:27N 25°22' E 119°60'6210.5
2014-Nov-25 14:32N 24°35' E 119°15'5711.3
2014-Nov-25 09:28N 23°58' E 118°28'1111.9
2014-Nov-25 08:33N 23°50' E 118°19'1111.1
2014-Nov-25 07:32N 23°44' E 118°09'1110.6
2014-Nov-25 06:31N 23°38' E 117°59'1111.2
2014-Nov-25 05:33N 23°31' E 117°50'1212.2
2014-Nov-25 04:33N 23°22' E 117°41'2913.2
2014-Nov-25 02:19N 23°02' E 117°18'912.3
2014-Nov-25 01:33N 22°56' E 117°09'1211.9
2014-Nov-25 00:33N 22°50' E 116°58'1211.6
2014-Nov-24 23:29N 22°42' E 116°48'1011.1
2014-Nov-24 22:33N 22°38' E 116°38'1411.3
2014-Nov-24 21:19N 22°34' E 116°23'1011.7
2014-Nov-24 20:29N 22°30' E 116°13'13113.2
2014-Nov-24 10:33N 21°57' E 113°56'1 0.5
2014-Nov-24 08:26N 21°58' E 113°55'910.6
2014-Nov-24 07:33N 22°06' E 113°51'1312.6
2014-Nov-24 06:33N 22°19' E 113°48'1312.6
2014-Nov-24 05:33N 22°31' E 113°44'1311.7
2014-Nov-24 04:29N 22°43' E 113°40'9 9.1
2014-Nov-24 03:33N 22°50' E 113°35'8 7.7
2014-Nov-24 02:33N 22°57' E 113°32'7 6.5
2014-Nov-24 01:31N 23°03' E 113°30'0 0.0
2014-Nov-24 00:07N 23°03' E 113°30'0 0.0
2014-Nov-23 23:31N 23°03' E 113°30'0 0.0
2014-Nov-23 22:31N 23°03' E 113°30'0 0.0
2014-Nov-23 21:31N 23°03' E 113°30'0 0.0
2014-Nov-23 20:25N 23°03' E 113°30'0 0.0
2014-Nov-23 19:31N 23°03' E 113°30'0 0.0
2014-Nov-23 18:31N 23°03' E 113°30'0 0.0
2014-Nov-23 17:31N 23°03' E 113°30'0 0.0
2014-Nov-23 16:25N 23°03' E 113°30'0 0.0
2014-Nov-23 15:31N 23°03' E 113°30'0 0.0
2014-Nov-23 14:25N 23°03' E 113°30'0 0.0
2014-Nov-23 13:25N 23°03' E 113°30'0 0.0
2014-Nov-23 12:25N 23°03' E 113°30'0 0.0
2014-Nov-23 11:31N 23°03' E 113°30'0 0.0
2014-Nov-23 10:25N 23°03' E 113°30'0 0.0
2014-Nov-23 09:25N 23°03' E 113°30'0 0.0
2014-Nov-23 08:31N 23°03' E 113°30'0 0.0
2014-Nov-23 07:31N 23°03' E 113°30'0 0.0
2014-Nov-23 06:19N 23°03' E 113°30'0 0.0
2014-Nov-23 05:25N 23°03' E 113°30'0 0.0
2014-Nov-23 04:31N 23°03' E 113°30'0 0.0
2014-Nov-23 03:19N 23°03' E 113°30'0 0.0
2014-Nov-23 02:19N 23°03' E 113°30'0 0.0
2014-Nov-23 01:25N 23°03' E 113°30'0 0.0
2014-Nov-23 00:19N 23°03' E 113°30'0 0.0
2014-Nov-22 23:31N 23°03' E 113°30'0 0.0
2014-Nov-22 22:19N 23°03' E 113°30'0 0.0
2014-Nov-22 21:31N 23°03' E 113°30'0 0.0
2014-Nov-22 20:31N 23°03' E 113°30'0 0.0
2014-Nov-22 19:31N 23°03' E 113°30'0 0.0
2014-Nov-22 18:31N 23°03' E 113°30'0 0.0
2014-Nov-22 17:19N 23°03' E 113°30'0 0.0
2014-Nov-22 16:19N 23°03' E 113°30'0 0.0
2014-Nov-22 15:31N 23°03' E 113°30'0 0.0
2014-Nov-22 14:19N 23°03' E 113°30'0 0.0
2014-Nov-22 13:19N 23°03' E 113°30'0 0.0
2014-Nov-22 12:31N 23°03' E 113°30'0 0.0
2014-Nov-22 11:31N 23°03' E 113°30'0 0.0
2014-Nov-22 10:31N 23°03' E 113°30'0 0.0
2014-Nov-22 09:31N 23°03' E 113°30'0 0.0
2014-Nov-22 08:25N 23°03' E 113°30'0 0.0
2014-Nov-22 07:31N 23°03' E 113°30'1 0.7
2014-Nov-22 06:33N 23°03' E 113°30'7 7.0
2014-Nov-22 05:33N 22°56' E 113°33'8 8.3
2014-Nov-22 04:33N 22°49' E 113°36'9 9.2
2014-Nov-22 03:33N 22°40' E 113°41'10 9.7
2014-Nov-22 02:33N 22°31' E 113°44'1111.2
2014-Nov-22 01:33N 22°20' E 113°48'10 9.8
2014-Nov-22 00:33N 22°11' E 113°50'10 9.8
2014-Nov-21 23:32N 22°01' E 113°52'15910.4
2014-Nov-21 08:19N 22°43' E 116°38'9210.5
2014-Nov-20 23:28N 23°38' E 117°58'9 9.4
2014-Nov-20 22:29N 23°44' E 118°06'10 9.7
2014-Nov-20 21:28N 23°51' E 118°14'9 9.5
2014-Nov-20 20:31N 23°58' E 118°20'1210.0
2014-Nov-20 19:21N 24°04' E 118°31'2410.6
2014-Nov-20 17:07N 24°19' E 118°52'911.3
2014-Nov-20 16:22N 24°25' E 118°58'1210.8
2014-Nov-20 15:14N 24°33' E 119°08'37410.4
2014-Nov-19 03:07N 29°50' E 122°51'40910.3
2014-Nov-17 11:16N 36°39' E 122°54'811.1
2014-Nov-17 10:31N 36°48' E 122°53'1110.8
2014-Nov-17 09:31N 36°58' E 122°49'1211.9
2014-Nov-17 08:33N 37°09' E 122°49'1111.2
2014-Nov-17 07:32N 37°21' E 122°48'13 9.2
2014-Nov-17 06:10N 37°31' E 122°40'6 9.7
2014-Nov-17 05:32N 37°35' E 122°34'9 9.6
2014-Nov-17 04:33N 37°42' E 122°25'  

Dump ship's entire track history